Time;durP1;ratioP1;P1;durP2;ratioP2;P2;SDS_P1;SDS_P2;PMS_P1;PMS_P2;Temp;Humidity;BMP_temperature;BMP_pressure;BME280_temperature;BME280_humidity;BME280_pressure;Samples;Min_cycle;Max_cycle;Signal;HPM_P1;HPM_P2
2022/07/03 00:01:45;;;;;;;5.65;2.67;;;26.80;99.00;;;;;;1864949;76;21183;-79
2022/07/03 00:04:18;;;;;;;4.90;2.60;;;26.80;98.90;;;;;;1864943;76;21150;-81
2022/07/03 00:06:49;;;;;;;5.22;2.25;;;26.80;98.80;;;;;;1878236;75;21948;-81
2022/07/03 00:09:20;;;;;;;6.60;2.77;;;26.80;98.80;;;;;;1860687;76;21064;-81
2022/07/03 00:11:51;;;;;;;9.53;2.87;;;26.80;98.90;;;;;;1881606;76;21130;-79
2022/07/03 00:14:24;;;;;;;5.00;2.98;;;26.80;99.00;;;;;;1838770;76;21158;-81
2022/07/03 00:16:55;;;;;;;5.97;2.72;;;26.80;99.00;;;;;;1846101;76;21579;-81
2022/07/03 00:19:27;;;;;;;6.20;2.60;;;26.80;98.90;;;;;;1849168;77;21177;-80
2022/07/03 00:22:00;;;;;;;5.75;3.10;;;26.90;98.70;;;;;;1844353;77;21212;-80
2022/07/03 00:24:34;;;;;;;8.83;2.70;;;26.90;98.70;;;;;;1838091;77;21217;-80
2022/07/03 00:27:08;;;;;;;8.23;3.30;;;26.90;98.80;;;;;;1847440;76;21146;-81
2022/07/03 00:29:41;;;;;;;7.20;3.12;;;27.00;98.70;;;;;;1848565;77;21200;-81
2022/07/03 00:32:14;;;;;;;8.00;2.95;;;27.00;98.60;;;;;;1850507;76;21123;-80
2022/07/03 00:34:47;;;;;;;7.35;2.52;;;27.00;98.60;;;;;;1851186;77;21620;-80
2022/07/03 00:37:19;;;;;;;5.70;2.90;;;27.10;98.30;;;;;;1776837;80;21160;-80
2022/07/03 00:39:50;;;;;;;4.40;2.77;;;27.00;98.40;;;;;;1847189;77;21095;-80
2022/07/03 00:42:21;;;;;;;5.72;2.87;;;27.10;98.40;;;;;;1771533;79;21197;-80
2022/07/03 00:44:54;;;;;;;7.67;3.12;;;27.20;98.20;;;;;;1780276;80;21155;-81
2022/07/03 00:47:27;;;;;;;6.20;2.67;;;27.20;98.20;;;;;;1781223;79;21570;-80
2022/07/03 00:49:58;;;;;;;5.83;2.65;;;27.20;98.00;;;;;;1849624;77;21141;-81
2022/07/03 00:52:31;;;;;;;5.85;2.42;;;27.30;98.00;;;;;;1782253;80;21071;-80
2022/07/03 00:55:03;;;;;;;5.20;2.95;;;27.30;97.90;;;;;;1848779;77;21067;-81
2022/07/03 00:57:36;;;;;;;7.45;2.60;;;27.30;97.90;;;;;;1771127;80;21161;-81
2022/07/03 01:00:08;;;;;;;6.20;2.77;;;27.40;97.80;;;;;;1850844;77;21626;-80
2022/07/03 01:02:41;;;;;;;8.15;2.60;;;27.40;97.70;;;;;;1784524;80;21202;-80
2022/07/03 01:05:15;;;;;;;7.75;2.52;;;27.40;97.50;;;;;;1852898;76;21652;-80
2022/07/03 01:07:48;;;;;;;5.70;2.67;;;27.50;97.20;;;;;;1842137;77;21661;-81
2022/07/03 01:10:22;;;;;;;10.80;2.75;;;27.60;96.90;;;;;;1789144;80;21192;-79
2022/07/03 01:12:55;;;;;;;7.65;2.55;;;27.60;97.00;;;;;;1857211;76;21150;-80
2022/07/03 01:15:29;;;;;;;7.00;2.50;;;27.60;96.60;;;;;;1805804;79;21800;-80
2022/07/03 01:18:02;;;;;;;8.65;2.67;;;27.70;96.50;;;;;;1818154;77;21124;-81
2022/07/03 01:20:35;;;;;;;6.08;2.70;;;27.70;96.40;;;;;;1825066;78;21623;-80
2022/07/03 01:23:08;;;;;;;4.78;2.50;;;27.80;96.60;;;;;;1826089;78;21168;-80
2022/07/03 01:25:41;;;;;;;4.33;2.50;;;28.00;96.50;;;;;;1826349;78;21160;-81
2022/07/03 01:28:15;;;;;;;5.33;2.52;;;28.00;95.70;;;;;;1825054;77;21143;-80
2022/07/03 01:30:48;;;;;;;6.75;3.00;;;28.10;95.60;;;;;;1800513;79;21214;-81
2022/07/03 01:33:21;;;;;;;6.87;2.25;;;28.10;95.80;;;;;;1863814;75;21064;-81
2022/07/03 01:35:55;;;;;;;6.47;2.92;;;28.20;95.40;;;;;;1872856;75;21204;-81
2022/07/03 01:38:28;;;;;;;7.67;2.50;;;28.20;95.40;;;;;;1875002;75;21946;-80
2022/07/03 01:41:04;;;;;;;5.15;2.17;;;28.30;95.60;;;;;;1862999;75;21179;-81
2022/07/03 01:43:37;;;;;;;6.47;2.55;;;28.40;95.10;;;;;;1879700;76;21178;-80
2022/07/03 01:46:08;;;;;;;5.83;2.45;;;28.50;95.10;;;;;;1867531;76;21092;-81
2022/07/03 01:48:42;;;;;;;7.78;2.30;;;28.70;95.00;;;;;;1875136;75;21635;-81
2022/07/03 01:51:15;;;;;;;5.97;2.27;;;28.80;94.60;;;;;;1862941;76;21576;-80
2022/07/03 01:53:49;;;;;;;6.05;2.20;;;28.90;94.40;;;;;;1867327;76;21062;-81
2022/07/03 01:56:23;;;;;;;5.20;2.00;;;29.00;94.10;;;;;;1875358;75;21064;-81
2022/07/03 01:58:54;;;;;;;5.30;2.15;;;29.20;93.40;;;;;;1860957;76;21225;-81
2022/07/03 02:01:27;;;;;;;5.92;2.75;;;29.40;92.80;;;;;;1872744;75;21113;-81
2022/07/03 02:04:00;;;;;;;5.83;2.20;;;29.40;92.70;;;;;;1880649;75;21159;-80
2022/07/03 02:06:34;;;;;;;5.47;2.20;;;29.40;92.70;;;;;;1864333;75;21230;-80
2022/07/03 02:09:07;;;;;;;4.72;2.30;;;29.40;93.10;;;;;;1887280;75;21143;-80
2022/07/03 02:11:42;;;;;;;7.53;2.22;;;29.40;92.80;;;;;;1837855;76;22626;-81
2022/07/03 02:14:15;;;;;;;6.12;2.45;;;29.30;92.90;;;;;;1844213;76;21161;-81
2022/07/03 02:16:49;;;;;;;5.17;1.95;;;29.30;92.90;;;;;;1865249;77;21091;-82
2022/07/03 02:19:21;;;;;;;4.62;2.12;;;29.40;92.50;;;;;;1848628;77;21095;-81
2022/07/03 02:21:54;;;;;;;4.50;2.22;;;29.40;92.50;;;;;;1867495;77;21185;-80
2022/07/03 02:24:27;;;;;;;5.62;2.05;;;29.50;92.30;;;;;;1853475;77;21149;-81
2022/07/03 02:27:00;;;;;;;6.80;2.52;;;29.60;92.50;;;;;;1858279;77;21619;-81
2022/07/03 02:29:34;;;;;;;4.50;2.12;;;29.70;92.30;;;;;;1866917;77;21142;-80
2022/07/03 02:32:07;;;;;;;7.55;2.30;;;29.70;91.70;;;;;;1865934;77;21219;-81
2022/07/03 02:34:40;;;;;;;6.80;2.30;;;29.80;92.10;;;;;;1862780;77;21134;-81
2022/07/03 02:37:13;;;;;;;4.95;2.87;;;29.80;92.00;;;;;;1861381;77;21161;-81
2022/07/03 02:39:46;;;;;;;6.12;2.25;;;30.00;91.30;;;;;;1854247;77;21660;-81
2022/07/03 02:42:20;;;;;;;6.05;2.08;;;29.90;91.40;;;;;;1846909;76;21191;-84
2022/07/03 02:44:54;;;;;;;5.87;3.00;;;29.90;91.60;;;;;;1859528;77;21190;-81
2022/07/03 02:47:28;;;;;;;6.22;2.22;;;29.90;91.80;;;;;;1847186;77;21085;-81
2022/07/03 02:50:02;;;;;;;6.90;2.42;;;29.90;91.70;;;;;;1851604;77;21159;-81
2022/07/03 02:52:35;;;;;;;12.88;2.80;;;29.80;91.70;;;;;;1858532;75;21607;-80
2022/07/03 02:55:09;;;;;;;5.97;2.35;;;29.70;91.50;;;;;;1856003;77;21443;-80
2022/07/03 02:57:43;;;;;;;6.03;2.85;;;29.70;91.70;;;;;;1854880;77;21157;-80
2022/07/03 03:00:14;;;;;;;8.08;2.87;;;29.60;92.40;;;;;;1860329;77;21594;-82
2022/07/03 03:02:48;;;;;;;6.78;2.83;;;29.60;92.30;;;;;;1845563;77;21668;-81
2022/07/03 03:05:21;;;;;;;7.42;2.80;;;29.70;92.20;;;;;;1861220;77;21179;-81
2022/07/03 03:07:54;;;;;;;7.90;2.65;;;29.70;92.10;;;;;;1855151;77;21431;-81
2022/07/03 03:10:25;;;;;;;6.28;2.30;;;29.70;91.90;;;;;;1859092;77;21101;-81
2022/07/03 03:12:59;;;;;;;6.50;2.90;;;29.70;91.60;;;;;;1858414;77;21095;-81
2022/07/03 03:15:31;;;;;;;5.62;2.77;;;29.80;91.40;;;;;;1839269;77;21157;-80
2022/07/03 03:18:05;;;;;;;4.45;2.20;;;29.80;90.90;;;;;;1846580;76;21123;-80
2022/07/03 03:20:38;;;;;;;6.22;3.40;;;29.80;91.10;;;;;;1833670;76;21532;-80
2022/07/03 03:23:11;;;;;;;4.25;2.50;;;29.70;91.00;;;;;;1835262;76;21236;-80
2022/07/03 03:25:42;;;;;;;5.47;2.42;;;29.70;90.90;;;;;;1838314;76;21648;-79
2022/07/03 03:28:15;;;;;;;6.25;2.65;;;29.70;91.00;;;;;;1850365;76;21198;-81
2022/07/03 03:30:46;;;;;;;4.80;2.65;;;29.80;91.20;;;;;;1847278;76;21148;-81
2022/07/03 03:33:17;;;;;;;6.55;2.87;;;29.80;91.20;;;;;;1842977;76;21191;-79
2022/07/03 03:35:49;;;;;;;6.25;2.65;;;29.80;91.00;;;;;;1846279;76;21147;-80
2022/07/03 03:38:20;;;;;;;5.53;2.80;;;29.90;90.70;;;;;;1850510;76;21080;-80
2022/07/03 03:40:52;;;;;;;7.28;2.77;;;29.90;90.50;;;;;;1851531;76;21142;-80
2022/07/03 03:43:23;;;;;;;13.20;3.12;;;30.00;90.70;;;;;;1842119;76;21209;-81
2022/07/03 03:45:54;;;;;;;7.05;2.95;;;30.00;90.80;;;;;;1785737;79;21556;-81
2022/07/03 03:48:27;;;;;;;7.12;2.87;;;30.10;90.90;;;;;;1777905;80;21699;-80
2022/07/03 03:50:58;;;;;;;5.00;2.62;;;30.10;90.70;;;;;;1810878;78;21237;-79
2022/07/03 03:53:30;;;;;;;6.30;2.90;;;30.20;90.70;;;;;;1798422;78;21151;-80
2022/07/03 03:56:04;;;;;;;5.20;2.98;;;30.20;90.40;;;;;;1796450;78;21477;-79
2022/07/03 03:58:37;;;;;;;7.85;3.65;;;30.20;90.70;;;;;;1802971;78;21097;-81
2022/07/03 04:01:09;;;;;;;5.17;3.00;;;30.20;90.70;;;;;;1801085;78;21563;-82
2022/07/03 04:03:41;;;;;;;7.15;4.05;;;30.30;90.50;;;;;;1771706;79;21720;-79
2022/07/03 04:06:12;;;;;;;9.85;4.05;;;30.40;90.00;;;;;;1775864;79;21124;-80
2022/07/03 04:08:43;;;;;;;8.65;4.20;;;30.40;89.80;;;;;;1803965;78;21143;-79
2022/07/03 04:11:13;;;;;;;7.72;3.87;;;30.30;90.00;;;;;;1776381;80;21164;-80
2022/07/03 04:13:45;;;;;;;5.95;3.70;;;30.40;90.40;;;;;;1806492;78;21177;-80
2022/07/03 04:16:17;;;;;;;6.72;3.30;;;30.40;89.50;;;;;;1772294;80;21201;-79
2022/07/03 04:18:48;;;;;;;7.28;3.75;;;30.40;89.70;;;;;;1786971;79;21689;-81
2022/07/03 04:21:19;;;;;;;6.03;3.55;;;30.60;89.60;;;;;;1764977;79;21528;-80
2022/07/03 04:23:50;;;;;;;6.58;3.33;;;30.60;89.60;;;;;;1794776;79;21108;-80
2022/07/03 04:26:21;;;;;;;4.37;2.62;;;30.70;90.30;;;;;;1844918;76;21284;-80
2022/07/03 04:28:52;;;;;;;7.90;3.00;;;30.80;90.30;;;;;;1823126;76;21167;-82
2022/07/03 04:31:23;;;;;;;6.72;3.30;;;30.70;90.40;;;;;;1854330;76;21746;-81
2022/07/03 04:33:54;;;;;;;6.47;3.12;;;30.80;90.40;;;;;;1839226;76;21138;-80
2022/07/03 04:36:25;;;;;;;6.97;3.50;;;30.70;90.20;;;;;;1869319;73;21064;-80
2022/07/03 04:38:56;;;;;;;8.80;3.33;;;30.70;90.60;;;;;;1844853;74;21185;-82
2022/07/03 04:41:27;;;;;;;6.92;2.60;;;30.80;89.30;;;;;;1847109;73;21197;-80
2022/07/03 04:43:58;;;;;;;5.87;2.47;;;30.90;87.20;;;;;;1782135;78;21155;-80
2022/07/03 04:46:29;;;;;;;5.75;2.62;;;31.00;87.40;;;;;;1797416;78;21163;-80
2022/07/03 04:49:00;;;;;;;4.78;2.30;;;31.00;86.70;;;;;;1775582;78;21165;-81
2022/07/03 04:51:31;;;;;;;3.92;2.35;;;31.10;85.50;;;;;;1807373;78;21186;-80
2022/07/03 04:54:03;;;;;;;5.05;2.50;;;31.10;85.80;;;;;;1840089;77;21772;-81
2022/07/03 04:56:34;;;;;;;4.53;2.37;;;31.20;86.30;;;;;;1833863;76;21217;-81
2022/07/03 04:59:05;;;;;;;6.37;3.20;;;31.20;85.90;;;;;;1790968;78;21944;-81
2022/07/03 05:01:38;;;;;;;6.70;2.75;;;31.20;86.50;;;;;;1829008;78;21182;-81
2022/07/03 05:04:12;;;;;;;5.37;2.58;;;31.20;86.20;;;;;;1844104;77;21140;-80
2022/07/03 05:06:43;;;;;;;8.10;2.85;;;31.20;86.40;;;;;;1832770;76;21247;-81
2022/07/03 05:09:15;;;;;;;6.47;3.00;;;31.20;86.20;;;;;;1845850;76;21155;-80
2022/07/03 05:11:46;;;;;;;6.40;3.20;;;31.20;86.00;;;;;;1849485;76;21254;-81
2022/07/03 05:14:17;;;;;;;7.83;2.75;;;31.20;86.20;;;;;;1852349;77;21083;-80
2022/07/03 05:16:47;;;;;;;7.95;3.05;;;31.20;86.50;;;;;;1840399;77;21451;-80
2022/07/03 05:19:18;;;;;;;6.80;3.65;;;31.20;86.60;;;;;;1848148;77;21564;-81
2022/07/03 05:21:49;;;;;;;9.48;5.72;;;31.20;85.80;;;;;;1833452;78;21070;-81
2022/07/03 05:24:21;;;;;;;6.70;3.72;;;31.20;85.80;;;;;;1836597;77;21155;-82
2022/07/03 05:26:52;;;;;;;10.55;4.17;;;31.40;85.30;;;;;;1840430;78;21108;-81
2022/07/03 05:29:23;;;;;;;9.35;7.25;;;31.40;84.90;;;;;;1847708;77;21642;-81
2022/07/03 05:31:54;;;;;;;7.00;4.55;;;31.50;84.30;;;;;;1840942;78;21115;-81
2022/07/03 05:34:25;;;;;;;6.80;4.10;;;31.60;84.40;;;;;;1796426;79;21627;-82
2022/07/03 05:36:56;;;;;;;5.85;3.20;;;31.70;83.80;;;;;;1808172;79;21157;-82
2022/07/03 05:39:33;;;;;;;6.25;2.42;;;31.70;83.00;;;;;;1789754;80;21108;-82
2022/07/03 05:41:59;;;;;;;6.37;3.20;;;31.80;82.20;;;;;;1790476;80;21676;-81
2022/07/03 05:44:30;;;;;;;3.65;1.92;;;31.80;82.90;;;;;;1794392;79;21154;-82
2022/07/03 05:47:01;;;;;;;4.28;1.82;;;31.90;81.40;;;;;;1792034;79;21072;-81
2022/07/03 05:49:32;;;;;;;3.33;1.52;;;32.00;82.30;;;;;;1763729;81;21173;-81
2022/07/03 05:52:03;;;;;;;3.27;1.62;;;32.10;80.20;;;;;;1776343;81;21104;-81
2022/07/03 05:54:34;;;;;;;4.85;2.10;;;32.20;79.90;;;;;;1764552;81;21149;-81
2022/07/03 05:57:07;;;;;;;8.53;2.90;;;32.20;80.40;;;;;;1775748;81;21104;-81
2022/07/03 05:59:38;;;;;;;4.45;2.22;;;32.20;80.60;;;;;;1761888;81;21184;-80
2022/07/03 06:02:09;;;;;;;4.62;2.60;;;32.20;80.60;;;;;;1764879;80;21548;-81
2022/07/03 06:04:40;;;;;;;11.30;4.00;;;32.20;80.70;;;;;;1804050;78;21079;-81
2022/07/03 06:07:11;;;;;;;7.12;2.58;;;32.20;80.80;;;;;;1795230;78;21245;-81
2022/07/03 06:09:42;;;;;;;4.35;2.35;;;32.20;80.80;;;;;;1791394;78;21094;-82
2022/07/03 06:12:14;;;;;;;3.83;1.98;;;32.20;81.00;;;;;;1767251;80;21162;-80
2022/07/03 06:14:44;;;;;;;3.45;1.32;;;32.20;80.10;;;;;;1801622;78;21216;-80
2022/07/03 06:17:15;;;;;;;3.58;1.55;;;32.20;80.20;;;;;;1810926;77;21641;-81
2022/07/03 06:19:47;;;;;;;4.95;2.20;;;32.20;79.80;;;;;;1851162;76;21617;-82
2022/07/03 06:22:17;;;;;;;4.25;2.22;;;32.20;80.80;;;;;;1846177;76;21059;-83
2022/07/03 06:24:48;;;;;;;4.95;2.60;;;32.20;80.10;;;;;;1861872;76;21131;-81
2022/07/03 06:27:22;;;;;;;5.92;2.92;;;32.20;80.70;;;;;;1852843;77;21543;-81
2022/07/03 06:29:53;;;;;;;4.40;2.22;;;32.40;81.30;;;;;;1847404;77;21161;-81
2022/07/03 06:32:25;;;;;;;5.92;2.45;;;32.50;81.60;;;;;;1860647;77;21095;-82
2022/07/03 06:34:57;;;;;;;6.85;2.47;;;32.60;81.60;;;;;;1786203;79;21102;-80
2022/07/03 06:37:28;;;;;;;7.05;2.45;;;32.60;81.80;;;;;;1852726;77;21150;-80
2022/07/03 06:40:01;;;;;;;6.15;2.67;;;32.60;81.40;;;;;;1852166;77;21142;-82
2022/07/03 06:42:32;;;;;;;6.97;2.47;;;32.60;81.80;;;;;;1844848;77;21599;-80
2022/07/03 06:45:03;;;;;;;5.08;2.40;;;32.60;81.10;;;;;;1856433;76;21210;-80
2022/07/03 06:47:37;;;;;;;5.30;2.50;;;32.60;80.50;;;;;;1850907;76;21079;-79
2022/07/03 06:50:09;;;;;;;7.28;2.60;;;32.60;80.30;;;;;;1850551;76;21627;-81
2022/07/03 06:52:40;;;;;;;6.42;2.25;;;32.60;80.30;;;;;;1847255;76;21173;-80
2022/07/03 06:55:11;;;;;;;5.28;2.60;;;32.60;80.70;;;;;;1849698;76;21196;-80
2022/07/03 06:57:42;;;;;;;4.22;2.02;;;32.60;82.20;;;;;;1779992;79;21667;-80
2022/07/03 07:00:13;;;;;;;6.53;2.33;;;32.60;82.00;;;;;;1840964;76;21154;-82
2022/07/03 07:02:45;;;;;;;3.58;1.75;;;32.60;79.90;;;;;;1777244;79;21249;-82
2022/07/03 07:05:16;;;;;;;4.30;2.02;;;32.60;80.00;;;;;;1852619;76;21143;-80
2022/07/03 07:07:47;;;;;;;6.03;2.05;;;32.60;79.70;;;;;;1836775;76;21193;-80
2022/07/03 07:10:18;;;;;;;5.35;1.70;;;32.60;79.60;;;;;;1845667;76;21225;-80
2022/07/03 07:12:49;;;;;;;4.72;1.77;;;32.70;79.30;;;;;;1844866;76;21150;-80
2022/07/03 07:15:20;;;;;;;3.30;1.62;;;32.80;79.80;;;;;;1861833;76;21163;-81
2022/07/03 07:17:51;;;;;;;3.83;1.65;;;32.80;78.00;;;;;;1847589;76;22014;-81
2022/07/03 07:20:22;;;;;;;3.70;1.80;;;32.90;77.80;;;;;;1844573;76;21171;-82
2022/07/03 07:22:52;;;;;;;3.37;1.67;;;33.00;77.90;;;;;;1823060;77;21168;-81
2022/07/03 07:25:23;;;;;;;3.15;1.52;;;33.00;77.90;;;;;;1847225;76;21158;-81
2022/07/03 07:27:54;;;;;;;3.58;1.60;;;33.00;78.80;;;;;;1838064;76;21560;-81
2022/07/03 07:30:25;;;;;;;3.55;2.17;;;33.00;77.40;;;;;;1853604;76;21213;-81
2022/07/03 07:32:58;;;;;;;5.87;1.80;;;32.90;78.60;;;;;;1839144;76;21546;-81
2022/07/03 07:35:28;;;;;;;6.80;1.80;;;32.90;78.20;;;;;;1855381;76;21696;-82
2022/07/03 07:37:59;;;;;;;4.58;1.70;;;32.90;77.50;;;;;;1827210;76;21599;-80
2022/07/03 07:40:31;;;;;;;4.55;1.75;;;32.90;77.20;;;;;;1839984;76;21675;-82
2022/07/03 07:43:02;;;;;;;3.52;1.35;;;32.90;77.40;;;;;;1836009;76;21144;-80
2022/07/03 07:45:34;;;;;;;4.80;1.90;;;32.90;76.30;;;;;;1841686;76;21148;-81
2022/07/03 07:48:05;;;;;;;5.15;2.22;;;32.90;76.50;;;;;;1841285;76;21527;-81
2022/07/03 07:50:36;;;;;;;2.80;1.80;;;32.90;76.80;;;;;;1836629;76;21612;-80
2022/07/03 07:53:11;;;;;;;4.87;2.00;;;33.00;78.50;;;;;;1840606;76;21717;-81
2022/07/03 07:55:42;;;;;;;4.70;2.10;;;33.00;78.90;;;;;;1839937;77;21221;-81
2022/07/03 07:58:15;;;;;;;4.30;1.70;;;33.10;79.30;;;;;;1829924;78;21295;-82
2022/07/03 08:05:51;;;;;;;4.60;1.85;;;33.30;77.10;;;;;;1800715;79;21154;-80
2022/07/03 08:08:22;;;;;;;6.00;2.40;;;33.30;78.50;;;;;;1773278;80;21175;-80
2022/07/03 08:10:53;;;;;;;4.30;2.22;;;33.30;77.90;;;;;;1796656;79;21131;-79
2022/07/03 08:13:27;;;;;;;4.00;2.15;;;33.20;77.40;;;;;;1754400;82;21221;-80
2022/07/03 08:15:58;;;;;;;4.03;2.00;;;33.30;78.60;;;;;;1776596;79;21643;-76
2022/07/03 08:18:29;;;;;;;7.83;2.85;;;33.30;77.00;;;;;;1806345;79;21147;-79
2022/07/03 08:21:00;;;;;;;5.90;2.33;;;33.20;77.80;;;;;;1816591;78;21171;-78
2022/07/03 08:23:31;;;;;;;4.65;2.20;;;33.30;78.40;;;;;;1805605;79;21182;-78
2022/07/03 08:26:03;;;;;;;4.62;2.40;;;33.30;78.30;;;;;;1811779;78;21483;-76
2022/07/03 08:28:34;;;;;;;5.22;2.05;;;33.30;78.40;;;;;;1801871;79;21184;-80
2022/07/03 08:31:05;;;;;;;3.75;2.10;;;33.20;76.50;;;;;;1811558;78;21206;-81
2022/07/03 08:33:37;;;;;;;4.20;2.05;;;33.10;77.90;;;;;;1813821;78;22010;-80
2022/07/03 08:36:08;;;;;;;4.58;2.20;;;33.10;77.90;;;;;;1757214;80;22246;-79
2022/07/03 08:38:39;;;;;;;7.30;2.08;;;33.00;77.90;;;;;;1809312;79;21563;-76
2022/07/03 08:41:10;;;;;;;5.22;2.02;;;33.00;78.40;;;;;;1780983;80;21724;-73
2022/07/03 08:43:43;;;;;;;5.78;2.30;;;32.80;78.40;;;;;;1808450;79;21178;-75
2022/07/03 08:46:15;;;;;;;4.65;1.90;;;32.70;79.10;;;;;;1806093;78;21109;-77
2022/07/03 08:48:48;;;;;;;5.55;2.08;;;32.70;79.50;;;;;;1810376;79;21178;-77
2022/07/03 08:51:21;;;;;;;6.58;2.00;;;32.60;80.00;;;;;;1807136;79;21119;-78
2022/07/03 08:53:54;;;;;;;4.85;1.90;;;32.50;79.70;;;;;;1810412;79;21529;-79
2022/07/03 08:56:26;;;;;;;3.85;1.65;;;32.50;79.60;;;;;;1809329;79;21559;-79
2022/07/03 08:58:59;;;;;;;3.62;1.80;;;32.40;79.90;;;;;;1776386;80;21165;-79
2022/07/03 09:01:31;;;;;;;5.65;1.90;;;32.50;79.70;;;;;;1811646;78;21207;-79
2022/07/03 09:04:03;;;;;;;5.00;2.37;;;32.40;79.50;;;;;;1810101;78;21267;-79
2022/07/03 09:06:35;;;;;;;5.25;2.22;;;32.40;79.40;;;;;;1808591;78;21137;-78
2022/07/03 09:09:08;;;;;;;4.17;1.65;;;32.40;79.40;;;;;;1810389;79;21200;-79
2022/07/03 09:11:40;;;;;;;7.05;2.12;;;32.40;79.50;;;;;;1799855;79;21177;-79
2022/07/03 09:14:10;;;;;;;5.37;2.17;;;32.50;80.00;;;;;;1811776;78;21166;-78
2022/07/03 09:16:43;;;;;;;3.45;2.27;;;32.50;80.80;;;;;;1811439;78;21171;-78
2022/07/03 09:19:14;;;;;;;7.47;2.45;;;32.50;80.10;;;;;;1810428;77;21167;-79
2022/07/03 09:21:48;;;;;;;5.67;2.20;;;32.50;80.50;;;;;;1851582;76;21086;-77
2022/07/03 09:24:18;;;;;;;5.10;2.45;;;32.40;80.50;;;;;;1831211;76;21178;-78
2022/07/03 09:26:52;;;;;;;6.03;2.62;;;32.50;80.70;;;;;;1846099;76;21160;-77
2022/07/03 09:29:23;;;;;;;5.12;2.75;;;32.50;80.90;;;;;;1828705;76;21105;-78
2022/07/03 09:31:57;;;;;;;4.90;2.77;;;32.40;81.30;;;;;;1801213;79;21294;-79
2022/07/03 09:34:34;;;;;;;6.65;2.45;;;32.50;81.20;;;;;;1769392;80;21714;-78
2022/07/03 09:37:05;;;;;;;5.15;2.72;;;32.50;81.30;;;;;;1834494;77;21508;-79
2022/07/03 09:39:39;;;;;;;8.50;3.45;;;32.40;81.80;;;;;;1800014;79;21081;-77
2022/07/03 09:42:16;;;;;;;5.47;2.75;;;32.40;82.00;;;;;;1806732;78;21094;-77
2022/07/03 09:44:50;;;;;;;7.08;3.37;;;32.40;82.20;;;;;;1771887;80;21182;-79
2022/07/03 09:47:25;;;;;;;7.47;3.00;;;32.30;82.40;;;;;;1793409;78;21213;-77
2022/07/03 09:49:58;;;;;;;5.33;2.70;;;32.30;82.30;;;;;;1794266;79;21153;-79
2022/07/03 09:52:32;;;;;;;6.15;3.30;;;32.30;82.30;;;;;;1833175;77;21598;-79
2022/07/03 09:55:05;;;;;;;5.70;2.65;;;32.20;82.20;;;;;;1839131;77;21218;-79
2022/07/03 09:57:38;;;;;;;7.67;3.15;;;32.20;82.20;;;;;;1828966;78;21162;-78
2022/07/03 10:00:11;;;;;;;6.90;3.08;;;32.10;82.40;;;;;;1797214;78;21159;-78
2022/07/03 10:02:45;;;;;;;8.33;2.80;;;32.10;82.70;;;;;;1803090;78;21182;-76
2022/07/03 10:05:16;;;;;;;6.20;3.60;;;32.10;82.60;;;;;;1783545;80;21158;-77
2022/07/03 10:07:49;;;;;;;5.00;3.35;;;32.10;82.70;;;;;;1798679;79;21187;-77
2022/07/03 10:10:22;;;;;;;6.53;3.10;;;32.10;82.80;;;;;;1792997;79;21082;-77
2022/07/03 10:12:55;;;;;;;8.28;3.87;;;32.10;82.90;;;;;;1782702;80;21507;-76
2022/07/03 10:15:31;;;;;;;8.13;2.95;;;32.10;82.90;;;;;;1764726;80;21273;-77
2022/07/03 10:18:07;;;;;;;5.72;2.92;;;32.10;83.00;;;;;;1789261;80;21170;-76
2022/07/03 10:20:40;;;;;;;11.95;2.80;;;32.10;82.40;;;;;;1789334;79;21091;-77
2022/07/03 10:23:12;;;;;;;6.33;2.80;;;32.10;82.70;;;;;;1832535;77;21310;-80
2022/07/03 10:25:44;;;;;;;5.85;2.90;;;32.10;82.70;;;;;;1853411;77;21125;-80
2022/07/03 10:28:17;;;;;;;4.37;3.10;;;32.10;83.30;;;;;;1853124;77;21053;-81
2022/07/03 10:30:49;;;;;;;5.92;2.67;;;32.10;82.40;;;;;;1835805;77;21091;-82
2022/07/03 10:33:21;;;;;;;7.97;3.08;;;32.10;82.50;;;;;;1823779;76;21208;-81
2022/07/03 10:35:54;;;;;;;6.55;3.77;;;32.00;82.50;;;;;;1852856;77;21099;-81
2022/07/03 10:38:28;;;;;;;4.53;2.72;;;32.00;82.60;;;;;;1853623;77;21629;-82
2022/07/03 10:46:11;;;;;;;6.22;2.65;;;31.90;82.40;;;;;;1830236;77;21108;-80
2022/07/03 10:48:44;;;;;;;6.33;3.10;;;31.90;82.90;;;;;;1851100;77;21218;-81
2022/07/03 10:51:16;;;;;;;6.60;3.40;;;31.90;83.20;;;;;;1849125;77;21676;-82
2022/07/03 10:53:48;;;;;;;5.65;3.35;;;31.90;83.00;;;;;;1847045;76;21181;-81
2022/07/03 10:56:19;;;;;;;5.65;3.05;;;31.90;83.10;;;;;;1853000;77;21122;-80
2022/07/03 10:58:52;;;;;;;5.78;2.75;;;31.90;83.40;;;;;;1857356;77;22030;-82
2022/07/03 11:01:26;;;;;;;5.87;3.10;;;31.90;83.30;;;;;;1841734;77;21197;-82
2022/07/03 11:04:02;;;;;;;4.30;2.80;;;31.90;82.90;;;;;;1844666;76;21123;-82
2022/07/03 11:06:33;;;;;;;7.70;3.52;;;31.80;82.90;;;;;;1845725;76;21139;-83
2022/07/03 11:09:05;;;;;;;7.33;3.75;;;31.80;83.20;;;;;;1854806;75;21119;-82
2022/07/03 11:14:13;;;;;;;7.08;3.12;;;31.80;83.00;;;;;;1849802;77;21127;-82
2022/07/03 11:16:44;;;;;;;6.67;3.45;;;31.80;83.00;;;;;;1787303;80;21202;-82
2022/07/03 11:19:15;;;;;;;8.80;3.60;;;31.80;82.90;;;;;;1836188;77;21057;-81
2022/07/03 11:21:48;;;;;;;5.72;3.17;;;31.70;82.90;;;;;;1848169;77;21172;-81
2022/07/03 11:24:23;;;;;;;7.50;3.47;;;31.70;83.00;;;;;;1854269;77;21126;-82
2022/07/03 11:26:56;;;;;;;8.13;3.80;;;31.70;83.10;;;;;;1844058;76;21105;-81
2022/07/03 11:29:29;;;;;;;7.62;3.87;;;31.70;83.30;;;;;;1873830;76;21223;-82
2022/07/03 11:32:02;;;;;;;6.87;3.67;;;31.70;83.30;;;;;;1855298;76;21127;-82
2022/07/03 11:34:36;;;;;;;7.53;3.75;;;31.70;83.60;;;;;;1846415;77;21099;-82
2022/07/03 11:37:08;;;;;;;8.85;3.77;;;31.70;83.60;;;;;;1840474;78;21170;-81
2022/07/03 11:39:39;;;;;;;10.80;4.30;;;31.60;83.70;;;;;;1853186;77;21185;-81
2022/07/03 11:42:10;;;;;;;7.62;3.70;;;31.60;83.80;;;;;;1841324;78;21206;-81
2022/07/03 11:44:42;;;;;;;10.80;3.90;;;31.60;83.90;;;;;;1853941;76;21103;-82
2022/07/03 11:47:14;;;;;;;7.60;3.72;;;31.60;84.10;;;;;;1842308;78;21167;-82
2022/07/03 11:49:49;;;;;;;7.42;4.22;;;31.60;84.40;;;;;;1854020;77;21244;-82
2022/07/03 11:52:22;;;;;;;11.35;4.08;;;31.60;84.40;;;;;;1802548;79;21700;-82
2022/07/03 11:54:55;;;;;;;6.72;4.47;;;31.50;84.60;;;;;;1775222;80;21206;-81
2022/07/03 11:57:27;;;;;;;7.28;4.35;;;31.50;84.80;;;;;;1796424;80;21142;-82
2022/07/03 12:00:01;;;;;;;6.40;3.87;;;31.50;84.90;;;;;;1787502;79;21150;-82
2022/07/03 12:02:35;;;;;;;7.65;4.22;;;31.50;85.10;;;;;;1831634;78;21138;-81
2022/07/03 12:05:11;;;;;;;6.25;3.77;;;31.50;85.20;;;;;;1880929;76;21218;-82
2022/07/03 12:07:42;;;;;;;6.28;3.77;;;31.50;85.40;;;;;;1866668;76;21213;-82
2022/07/03 12:10:14;;;;;;;6.70;3.70;;;31.40;85.30;;;;;;1825692;77;21162;-81
2022/07/03 12:12:45;;;;;;;7.80;3.98;;;31.50;85.60;;;;;;1818589;78;21092;-82
2022/07/03 12:15:16;;;;;;;9.23;4.83;;;31.50;85.60;;;;;;1841766;78;21070;-82
2022/07/03 12:17:47;;;;;;;8.80;4.95;;;31.40;85.80;;;;;;1839654;78;21720;-82
2022/07/03 12:20:19;;;;;;;13.18;4.92;;;31.40;86.20;;;;;;1850319;76;21133;-83
2022/07/03 12:22:50;;;;;;;13.13;5.60;;;31.40;90.50;;;;;;1837812;76;21192;-82
2022/07/03 12:25:21;;;;;;;13.62;5.83;;;31.20;91.20;;;;;;1786975;80;21165;-82
2022/07/03 12:27:52;;;;;;;9.70;4.85;;;31.00;92.80;;;;;;1750030;80;21178;-82
2022/07/03 12:30:27;;;;;;;8.13;4.78;;;30.80;93.00;;;;;;1779811;79;21267;-81
2022/07/03 12:32:57;;;;;;;8.35;5.22;;;30.60;93.30;;;;;;1821675;78;21570;-80
2022/07/03 12:35:31;;;;;;;10.23;5.80;;;30.50;93.30;;;;;;1784227;79;21176;-82
2022/07/03 12:38:02;;;;;;;13.32;5.97;;;30.30;93.40;;;;;;1831230;78;21138;-82
2022/07/03 12:40:33;;;;;;;8.93;5.25;;;30.20;93.80;;;;;;1757502;80;21220;-80
2022/07/03 12:43:04;;;;;;;9.15;5.37;;;30.20;94.50;;;;;;1782080;79;21264;-81
2022/07/03 12:45:35;;;;;;;9.75;5.75;;;30.10;94.30;;;;;;1815040;78;21158;-80
2022/07/03 12:48:10;;;;;;;12.53;6.33;;;30.10;94.40;;;;;;1754556;81;21076;-81
2022/07/03 12:50:43;;;;;;;9.55;5.60;;;30.00;94.90;;;;;;1814324;78;21173;-82
2022/07/03 12:53:17;;;;;;;9.80;6.00;;;30.00;95.40;;;;;;1813736;77;21147;-82
2022/07/03 12:55:48;;;;;;;11.85;5.62;;;30.00;95.40;;;;;;1823585;78;21103;-81
2022/07/03 13:01:19;;;;;;;11.67;6.20;;;30.00;95.90;;;;;;1892753;75;21230;-80
2022/07/03 13:03:51;;;;;;;11.05;6.10;;;30.00;95.60;;;;;;1890933;75;21641;-81
2022/07/03 13:06:24;;;;;;;10.68;7.03;;;30.00;95.40;;;;;;1901999;75;21594;-81
2022/07/03 13:08:58;;;;;;;11.48;6.60;;;30.00;95.20;;;;;;1887930;75;21067;-81
2022/07/03 13:11:32;;;;;;;10.98;6.20;;;30.00;94.60;;;;;;1882785;75;21124;-81
2022/07/03 13:14:05;;;;;;;8.20;5.25;;;30.00;93.90;;;;;;1883153;75;21095;-81
2022/07/03 13:16:39;;;;;;;13.90;7.37;;;30.10;93.30;;;;;;1892839;75;21073;-81
2022/07/03 13:19:12;;;;;;;12.13;5.95;;;30.10;93.50;;;;;;1881153;75;21548;-82
2022/07/03 13:21:44;;;;;;;11.63;5.62;;;30.10;92.90;;;;;;1900952;74;21190;-80
2022/07/03 13:24:17;;;;;;;10.55;5.05;;;30.20;92.80;;;;;;1892574;75;21063;-82
2022/07/03 13:26:49;;;;;;;11.50;5.42;;;30.20;92.60;;;;;;1893458;74;21124;-82